Time,TemperatureF,DewpointF,PressureIn,WindDirection,WindDirectionDegrees,WindSpeedMPH,WindSpeedGustMPH,Humidity,HourlyPrecipIn,Conditions,Clouds,dailyrainin,SolarRadiationWatts/m^2,SoftwareType,DateUTC
2013-02-24 00:00:00,37.0,29.0,-100.00,East,83,1.0,16.0,73,0.00,,,0.00,0.000000,,2013-02-24 08:00:00,
2013-02-24 00:22:00,37.0,29.0,-100.00,East,83,1.0,16.0,73,0.00,,,0.00,0.000000,,2013-02-24 08:22:00,
2013-02-24 00:32:00,37.0,29.0,-100.00,East,83,1.0,16.0,73,0.00,,,0.00,0.000000,,2013-02-24 08:32:00,
2013-02-24 00:42:00,37.0,29.0,-100.00,East,83,1.0,16.0,73,0.00,,,0.00,0.000000,,2013-02-24 08:42:00,
2013-02-24 00:53:00,37.0,29.0,-100.00,East,83,1.0,16.0,73,0.00,,,0.00,0.000000,,2013-02-24 08:53:00,
2013-02-24 01:00:00,36.0,29.0,-100.00,WNW,285,3.0,6.0,76,0.00,,,0.00,0.000000,,2013-02-24 09:00:00,
2013-02-24 01:22:00,36.0,29.0,-100.00,WNW,285,3.0,6.0,76,0.00,,,0.00,0.000000,,2013-02-24 09:22:00,
2013-02-24 01:32:00,36.0,29.0,-100.00,WNW,285,3.0,6.0,76,0.00,,,0.00,0.000000,,2013-02-24 09:32:00,
2013-02-24 01:42:00,36.0,29.0,-100.00,WNW,285,3.0,6.0,76,0.00,,,0.00,0.000000,,2013-02-24 09:42:00,
2013-02-24 01:52:00,36.0,29.0,-100.00,WNW,285,3.0,6.0,76,0.00,,,0.00,0.000000,,2013-02-24 09:52:00,
2013-02-24 02:00:00,35.0,28.0,-100.00,WNW,296,4.0,8.0,75,0.00,,,0.00,0.000000,,2013-02-24 10:00:00,
2013-02-24 02:22:00,35.0,28.0,-100.00,WNW,296,4.0,8.0,75,0.00,,,0.00,0.000000,,2013-02-24 10:22:00,
2013-02-24 02:32:00,35.0,28.0,-100.00,WNW,296,4.0,8.0,75,0.00,,,0.00,0.000000,,2013-02-24 10:32:00,
2013-02-24 02:42:00,35.0,28.0,-100.00,WNW,296,4.0,8.0,75,0.00,,,0.00,0.000000,,2013-02-24 10:42:00,
2013-02-24 02:52:00,35.0,28.0,-100.00,WNW,296,4.0,8.0,75,0.00,,,0.00,0.000000,,2013-02-24 10:52:00,
2013-02-24 03:00:00,37.0,30.0,-100.00,WNW,292,2.0,7.0,76,0.00,,,0.00,0.000000,,2013-02-24 11:00:00,
2013-02-24 03:32:00,37.0,30.0,-100.00,WNW,292,2.0,7.0,76,0.00,,,0.00,0.000000,,2013-02-24 11:32:00,
2013-02-24 03:42:00,37.0,30.0,-100.00,WNW,292,2.0,7.0,76,0.00,,,0.00,0.000000,,2013-02-24 11:42:00,
2013-02-24 03:52:00,37.0,30.0,-100.00,WNW,292,2.0,7.0,76,0.00,,,0.00,0.000000,,2013-02-24 11:52:00,
2013-02-24 04:22:00,35.0,29.0,-100.00,NW,316,0.0,6.0,77,0.00,,,0.00,0.000000,,2013-02-24 12:22:00,
2013-02-24 04:32:00,35.0,29.0,-100.00,NW,316,0.0,6.0,77,0.00,,,0.00,0.000000,,2013-02-24 12:32:00,
2013-02-24 04:46:00,35.0,29.0,-100.00,NW,316,0.0,6.0,77,0.00,,,0.00,0.000000,,2013-02-24 12:46:00,
2013-02-24 04:55:00,35.0,29.0,-100.00,NW,316,0.0,6.0,77,0.00,,,0.00,0.000000,,2013-02-24 12:55:00,
2013-02-24 05:00:00,34.0,30.0,-100.00,NW,308,2.0,3.0,85,0.00,,,0.00,0.000000,,2013-02-24 13:00:00,
2013-02-24 05:35:00,34.0,30.0,-100.00,NW,308,2.0,3.0,85,0.00,,,0.00,0.000000,,2013-02-24 13:35:00,
2013-02-24 05:45:00,34.0,30.0,-100.00,NW,308,2.0,3.0,85,0.00,,,0.00,0.000000,,2013-02-24 13:45:00,
2013-02-24 05:54:00,34.0,30.0,-100.00,NW,308,2.0,3.0,85,0.00,,,0.00,0.000000,,2013-02-24 13:54:00,
2013-02-24 06:00:00,33.0,28.0,-100.00,WNW,295,7.0,10.0,80,0.00,,,0.00,0.000000,,2013-02-24 14:00:00,
2013-02-24 06:25:00,33.0,28.0,-100.00,WNW,295,7.0,10.0,80,0.00,,,0.00,0.000000,,2013-02-24 14:25:00,
2013-02-24 06:34:00,33.0,28.0,-100.00,WNW,295,7.0,10.0,80,0.00,,,0.00,0.000000,,2013-02-24 14:34:00,
2013-02-24 06:45:00,33.0,28.0,-100.00,WNW,295,7.0,10.0,80,0.00,,,0.00,0.000000,,2013-02-24 14:45:00,
2013-02-24 06:53:00,33.0,28.0,-100.00,WNW,295,7.0,10.0,80,0.00,,,0.00,0.000000,,2013-02-24 14:53:00,
2013-02-24 07:00:00,32.0,23.0,-100.00,West,276,8.0,11.0,70,0.00,,,0.00,0.000000,,2013-02-24 15:00:00,
2013-02-24 07:32:00,32.0,23.0,-100.00,West,276,8.0,11.0,70,0.00,,,0.00,0.000000,,2013-02-24 15:32:00,
2013-02-24 07:42:00,32.0,23.0,-100.00,West,276,8.0,11.0,70,0.00,,,0.00,0.000000,,2013-02-24 15:42:00,
2013-02-24 07:52:00,32.0,23.0,-100.00,West,276,8.0,11.0,70,0.00,,,0.00,0.000000,,2013-02-24 15:52:00,
2013-02-24 08:00:00,32.0,19.0,-100.00,WNW,285,6.0,14.0,59,0.00,,,0.00,18.000000,,2013-02-24 16:00:00,
2013-02-24 08:32:00,32.0,19.0,-100.00,WNW,285,6.0,14.0,59,0.00,,,0.00,18.000000,,2013-02-24 16:32:00,
2013-02-24 08:42:00,32.0,19.0,-100.00,WNW,285,6.0,14.0,59,0.00,,,0.00,18.000000,,2013-02-24 16:42:00,
2013-02-24 08:52:00,32.0,19.0,-100.00,WNW,285,6.0,14.0,59,0.00,,,0.00,18.000000,,2013-02-24 16:52:00,
2013-02-24 09:00:00,42.0,26.0,-100.00,East,101,4.0,10.0,53,-99.99,,,0.00,225.000000,,2013-02-24 17:00:00,
2013-02-24 09:22:00,42.0,26.0,-100.00,East,101,4.0,10.0,53,-99.99,,,0.00,225.000000,,2013-02-24 17:22:00,
2013-02-24 09:32:00,42.0,26.0,-100.00,East,101,4.0,10.0,53,-99.99,,,0.00,225.000000,,2013-02-24 17:32:00,
2013-02-24 09:42:00,42.0,26.0,-100.00,East,101,4.0,10.0,53,-99.99,,,0.00,225.000000,,2013-02-24 17:42:00,
2013-02-24 09:52:00,42.0,26.0,-100.00,East,101,4.0,10.0,53,-99.99,,,0.00,225.000000,,2013-02-24 17:52:00,
2013-02-24 10:00:00,46.0,19.0,-100.00,East,91,2.0,8.0,33,0.00,,,0.00,482.000000,,2013-02-24 18:00:00,
2013-02-24 10:22:00,46.0,19.0,-100.00,East,91,2.0,8.0,33,0.00,,,0.00,482.000000,,2013-02-24 18:22:00,
2013-02-24 10:32:00,46.0,19.0,-100.00,East,91,2.0,8.0,33,0.00,,,0.00,482.000000,,2013-02-24 18:32:00,
2013-02-24 10:42:00,46.0,19.0,-100.00,East,91,2.0,8.0,33,0.00,,,0.00,482.000000,,2013-02-24 18:42:00,
2013-02-24 10:52:00,46.0,19.0,-100.00,East,91,2.0,8.0,33,0.00,,,0.00,482.000000,,2013-02-24 18:52:00,
2013-02-24 11:00:00,49.0,11.0,-100.00,ESE,123,4.0,9.0,21,0.00,,,0.00,723.000000,,2013-02-24 19:00:00,
2013-02-24 11:22:00,49.0,11.0,-100.00,ESE,123,4.0,9.0,21,0.00,,,0.00,723.000000,,2013-02-24 19:22:00,
2013-02-24 11:32:00,49.0,11.0,-100.00,ESE,123,4.0,9.0,21,0.00,,,0.00,723.000000,,2013-02-24 19:32:00,
2013-02-24 11:42:00,49.0,11.0,-100.00,ESE,123,4.0,9.0,21,0.00,,,0.00,723.000000,,2013-02-24 19:42:00,
2013-02-24 11:52:00,49.0,11.0,-100.00,ESE,123,4.0,9.0,21,0.00,,,0.00,723.000000,,2013-02-24 19:52:00,
2013-02-24 12:00:00,49.0,6.0,-100.00,WNW,288,3.0,10.0,17,0.00,,,0.00,945.000000,,2013-02-24 20:00:00,
2013-02-24 12:32:00,49.0,6.0,-100.00,WNW,288,3.0,10.0,17,0.00,,,0.00,945.000000,,2013-02-24 20:32:00,
2013-02-24 12:42:00,49.0,6.0,-100.00,WNW,288,3.0,10.0,17,0.00,,,0.00,945.000000,,2013-02-24 20:42:00,
2013-02-24 12:52:00,49.0,6.0,-100.00,WNW,288,3.0,10.0,17,0.00,,,0.00,945.000000,,2013-02-24 20:52:00,
2013-02-24 13:00:00,53.0,5.0,-100.00,ESE,108,6.0,11.0,14,0.00,,,0.00,1008.000000,,2013-02-24 21:00:00,
2013-02-24 13:32:00,53.0,5.0,-100.00,ESE,108,6.0,11.0,14,0.00,,,0.00,1008.000000,,2013-02-24 21:32:00,
2013-02-24 13:42:00,53.0,5.0,-100.00,ESE,108,6.0,11.0,14,0.00,,,0.00,1008.000000,,2013-02-24 21:42:00,
2013-02-24 13:52:00,53.0,5.0,-100.00,ESE,108,6.0,11.0,14,0.00,,,0.00,1008.000000,,2013-02-24 21:52:00,
2013-02-24 14:00:00,55.0,3.0,-100.00,SE,132,2.0,12.0,12,0.00,,,0.00,1031.000000,,2013-02-24 22:00:00,
2013-02-24 14:32:00,55.0,3.0,-100.00,SE,132,2.0,12.0,12,0.00,,,0.00,1031.000000,,2013-02-24 22:32:00,
2013-02-24 14:42:00,55.0,3.0,-100.00,SE,132,2.0,12.0,12,0.00,,,0.00,1031.000000,,2013-02-24 22:42:00,
2013-02-24 14:52:00,55.0,3.0,-100.00,SE,132,2.0,12.0,12,0.00,,,0.00,1031.000000,,2013-02-24 22:52:00,
2013-02-24 15:00:00,57.0,5.0,-100.00,ESE,113,2.0,11.0,12,0.00,,,0.00,974.000000,,2013-02-24 23:00:00,
2013-02-24 15:22:00,57.0,5.0,-100.00,ESE,113,2.0,11.0,12,0.00,,,0.00,974.000000,,2013-02-24 23:22:00,
2013-02-24 15:32:00,57.0,5.0,-100.00,ESE,113,2.0,11.0,12,0.00,,,0.00,974.000000,,2013-02-24 23:32:00,
2013-02-24 15:42:00,57.0,5.0,-100.00,ESE,113,2.0,11.0,12,0.00,,,0.00,974.000000,,2013-02-24 23:42:00,
2013-02-24 15:52:00,57.0,5.0,-100.00,ESE,113,2.0,11.0,12,0.00,,,0.00,974.000000,,2013-02-24 23:52:00,
2013-02-24 16:00:00,55.0,1.0,-100.00,ESE,103,2.0,10.0,11,0.00,,,0.00,820.000000,,2013-02-25 00:00:00,
2013-02-24 16:32:00,55.0,1.0,-100.00,ESE,103,2.0,10.0,11,0.00,,,0.00,820.000000,,2013-02-25 00:32:00,
2013-02-24 16:42:00,55.0,1.0,-100.00,ESE,103,2.0,10.0,11,0.00,,,0.00,820.000000,,2013-02-25 00:42:00,
2013-02-24 16:52:00,55.0,1.0,-100.00,ESE,103,2.0,10.0,11,0.00,,,0.00,820.000000,,2013-02-25 00:52:00,
2013-02-24 17:00:00,58.0,4.0,-100.00,South,188,1.0,10.0,11,0.00,,,0.00,592.000000,,2013-02-25 01:00:00,
2013-02-24 17:32:00,58.0,4.0,-100.00,South,188,1.0,10.0,11,0.00,,,0.00,592.000000,,2013-02-25 01:32:00,
2013-02-24 17:42:00,58.0,4.0,-100.00,South,188,1.0,10.0,11,0.00,,,0.00,592.000000,,2013-02-25 01:42:00,
2013-02-24 17:52:00,58.0,4.0,-100.00,South,188,1.0,10.0,11,0.00,,,0.00,592.000000,,2013-02-25 01:52:00,
2013-02-24 18:00:00,50.0,15.0,-100.00,WNW,293,7.0,9.0,24,0.00,,,0.00,289.000000,,2013-02-25 02:00:00,
2013-02-24 18:32:00,50.0,15.0,-100.00,WNW,293,7.0,9.0,24,0.00,,,0.00,289.000000,,2013-02-25 02:32:00,
2013-02-24 18:42:00,50.0,15.0,-100.00,WNW,293,7.0,9.0,24,0.00,,,0.00,289.000000,,2013-02-25 02:42:00,
2013-02-24 18:52:00,50.0,15.0,-100.00,WNW,293,7.0,9.0,24,0.00,,,0.00,289.000000,,2013-02-25 02:52:00,
2013-02-24 19:00:00,41.0,12.0,-100.00,WNW,291,9.0,13.0,30,0.00,,,-99.99,13.000000,,2013-02-25 03:00:00,
2013-02-24 19:21:00,41.0,12.0,-100.00,WNW,291,9.0,13.0,30,0.00,,,-99.99,13.000000,,2013-02-25 03:21:00,
2013-02-24 19:32:00,41.0,12.0,-100.00,WNW,291,9.0,13.0,30,0.00,,,-99.99,13.000000,,2013-02-25 03:32:00,
2013-02-24 19:42:00,41.0,12.0,-100.00,WNW,291,9.0,13.0,30,0.00,,,-99.99,13.000000,,2013-02-25 03:42:00,
2013-02-24 19:52:00,41.0,12.0,-100.00,WNW,291,9.0,13.0,30,0.00,,,-99.99,13.000000,,2013-02-25 03:52:00,
2013-02-24 20:00:00,40.0,12.0,-100.00,WNW,290,8.0,14.0,31,0.00,,,0.00,0.000000,,2013-02-25 04:00:00,
2013-02-24 20:22:00,40.0,12.0,-100.00,WNW,290,8.0,14.0,31,0.00,,,0.00,0.000000,,2013-02-25 04:22:00,
2013-02-24 20:32:00,40.0,12.0,-100.00,WNW,290,8.0,14.0,31,0.00,,,0.00,0.000000,,2013-02-25 04:32:00,
2013-02-24 20:42:00,40.0,12.0,-100.00,WNW,290,8.0,14.0,31,0.00,,,0.00,0.000000,,2013-02-25 04:42:00,
2013-02-24 20:52:00,40.0,12.0,-100.00,WNW,290,8.0,14.0,31,0.00,,,0.00,0.000000,,2013-02-25 04:52:00,
2013-02-24 21:00:00,37.0,11.0,-100.00,WNW,292,9.0,13.0,33,0.00,,,0.00,0.000000,,2013-02-25 05:00:00,
2013-02-24 21:32:00,37.0,11.0,-100.00,WNW,292,9.0,13.0,33,0.00,,,0.00,0.000000,,2013-02-25 05:32:00,
2013-02-24 21:42:00,37.0,11.0,-100.00,WNW,292,9.0,13.0,33,0.00,,,0.00,0.000000,,2013-02-25 05:42:00,
2013-02-24 21:52:00,37.0,11.0,-100.00,WNW,292,9.0,13.0,33,0.00,,,0.00,0.000000,,2013-02-25 05:52:00,
2013-02-24 22:00:00,36.0,10.0,-100.00,WNW,291,7.0,13.0,34,0.00,,,0.00,0.000000,,2013-02-25 06:00:00,
2013-02-24 22:32:00,36.0,10.0,-100.00,WNW,291,7.0,13.0,34,0.00,,,0.00,0.000000,,2013-02-25 06:32:00,
2013-02-24 22:42:00,36.0,10.0,-100.00,WNW,291,7.0,13.0,34,0.00,,,0.00,0.000000,,2013-02-25 06:42:00,
2013-02-24 22:52:00,36.0,10.0,-100.00,WNW,291,7.0,13.0,34,0.00,,,0.00,0.000000,,2013-02-25 06:52:00,
2013-02-24 23:00:00,37.0,13.0,-100.00,WNW,290,9.0,13.0,36,0.00,,,0.00,0.000000,,2013-02-25 07:00:00,
2013-02-24 23:32:00,37.0,13.0,-100.00,WNW,290,9.0,13.0,36,0.00,,,0.00,0.000000,,2013-02-25 07:32:00,
2013-02-24 23:42:00,37.0,13.0,-100.00,WNW,290,9.0,13.0,36,0.00,,,0.00,0.000000,,2013-02-25 07:42:00,
2013-02-24 23:52:00,37.0,13.0,-100.00,WNW,290,9.0,13.0,36,0.00,,,0.00,0.000000,,2013-02-25 07:52:00,